createdAt,value
2022-08-11T00:01:39.471Z,18.19
2022-08-11T00:03:56.997Z,18.18
2022-08-11T00:06:00.783Z,18.18
2022-08-11T00:08:06.681Z,18.18
2022-08-11T00:10:12.981Z,18.16
2022-08-11T00:12:18.239Z,18.15
2022-08-11T00:14:24.866Z,18.16
2022-08-11T00:16:42.037Z,18.15
2022-08-11T00:18:47.961Z,18.12
2022-08-11T00:20:53.308Z,18.08
2022-08-11T00:23:04.346Z,18.05
2022-08-11T00:25:12.436Z,18.02
2022-08-11T00:27:15.976Z,18.00
2022-08-11T00:29:20.080Z,18.00
2022-08-11T00:31:28.944Z,17.99
2022-08-11T00:33:41.202Z,17.98
2022-08-11T00:35:57.292Z,17.95
2022-08-11T00:38:04.244Z,17.88
2022-08-11T00:40:18.215Z,17.82
2022-08-11T00:42:37.023Z,17.77
2022-08-11T00:44:56.572Z,17.74
2022-08-11T00:47:16.137Z,17.75
2022-08-11T00:49:30.939Z,17.72
2022-08-11T00:52:04.743Z,17.71
2022-08-11T00:54:45.166Z,17.69
2022-08-11T00:57:37.006Z,17.68
2022-08-11T01:00:06.797Z,17.64
2022-08-11T01:02:20.782Z,17.57
2022-08-11T01:05:08.449Z,17.58
2022-08-11T01:08:01.243Z,17.62
2022-08-11T01:10:32.809Z,17.62
2022-08-11T01:12:47.225Z,17.60
2022-08-11T01:15:40.343Z,17.58
2022-08-11T01:18:13.172Z,17.57
2022-08-11T01:20:52.843Z,17.53
2022-08-11T01:23:23.388Z,17.50
2022-08-11T01:25:57.101Z,17.46
2022-08-11T01:28:48.467Z,17.39
2022-08-11T01:31:37.323Z,17.31
2022-08-11T01:34:17.313Z,17.21
2022-08-11T01:36:59.084Z,17.19
2022-08-11T01:39:35.103Z,17.17
2022-08-11T01:42:34.506Z,17.14
2022-08-11T01:45:03.712Z,17.17
2022-08-11T01:47:53.506Z,17.21
2022-08-11T01:50:10.282Z,17.28
2022-08-11T01:52:33.613Z,17.28
2022-08-11T01:54:49.124Z,17.27
2022-08-11T01:57:11.301Z,17.23
2022-08-11T01:59:21.697Z,17.20
2022-08-11T02:01:45.882Z,17.15
2022-08-11T02:03:56.505Z,17.06
2022-08-11T02:06:25.376Z,17.03
2022-08-11T02:08:44.826Z,16.93
2022-08-11T02:11:17.533Z,16.92
2022-08-11T02:13:38.997Z,16.92
2022-08-11T02:15:48.899Z,16.89
2022-08-11T02:18:01.875Z,16.90
2022-08-11T02:20:33.270Z,16.92
2022-08-11T02:23:05.248Z,16.90
2022-08-11T02:25:13.405Z,16.87
2022-08-11T02:27:24.682Z,16.82
2022-08-11T02:29:34.736Z,16.80
2022-08-11T02:32:24.895Z,16.80
2022-08-11T02:34:59.864Z,16.77
2022-08-11T02:37:23.542Z,16.76
2022-08-11T02:39:33.418Z,16.76
2022-08-11T02:42:08.960Z,16.73
2022-08-11T02:44:43.661Z,16.70
2022-08-11T02:47:08.537Z,16.67
2022-08-11T02:49:37.359Z,16.65
2022-08-11T02:51:53.911Z,16.63
2022-08-11T02:54:09.924Z,16.60
2022-08-11T02:56:27.008Z,16.56
2022-08-11T02:58:41.000Z,16.51
2022-08-11T03:00:58.378Z,16.49
2022-08-11T03:03:20.295Z,16.48
2022-08-11T03:05:34.599Z,16.50
2022-08-11T03:07:52.992Z,16.49
2022-08-11T03:10:04.458Z,16.47
2022-08-11T03:12:40.827Z,16.47
2022-08-11T03:15:08.727Z,16.44
2022-08-11T03:17:26.415Z,16.37
2022-08-11T03:19:44.017Z,16.34
2022-08-11T03:22:06.385Z,16.31
2022-08-11T03:24:17.129Z,16.29
2022-08-11T03:26:29.393Z,16.27
2022-08-11T03:28:38.054Z,16.25
2022-08-11T03:30:52.149Z,16.23
2022-08-11T03:33:27.021Z,16.23
2022-08-11T03:35:36.307Z,16.23
2022-08-11T03:37:52.980Z,16.23
2022-08-11T03:40:04.607Z,16.20
2022-08-11T03:42:16.571Z,16.18
2022-08-11T03:44:35.751Z,16.17
2022-08-11T03:46:57.764Z,16.14
2022-08-11T03:49:12.953Z,16.10
2022-08-11T03:51:24.302Z,16.13
2022-08-11T03:53:45.495Z,16.15
2022-08-11T03:56:21.963Z,16.13
2022-08-11T03:58:56.591Z,16.14
2022-08-11T04:01:39.206Z,16.15
2022-08-11T04:03:59.805Z,16.16
2022-08-11T04:06:30.614Z,16.17
2022-08-11T04:09:16.860Z,16.16
2022-08-11T04:11:47.995Z,16.12
2022-08-11T04:14:47.728Z,16.06
2022-08-11T04:17:19.869Z,15.99
2022-08-11T04:19:58.832Z,15.93
2022-08-11T04:22:48.532Z,15.89
2022-08-11T04:25:16.477Z,15.85
2022-08-11T04:27:50.672Z,15.82
2022-08-11T04:30:09.180Z,15.80
2022-08-11T04:32:36.553Z,15.78
2022-08-11T04:35:14.166Z,15.77
2022-08-11T04:37:53.515Z,15.77
2022-08-11T04:40:33.709Z,15.73
2022-08-11T04:43:32.030Z,15.69
2022-08-11T04:46:01.241Z,15.68
2022-08-11T04:48:42.120Z,15.67
2022-08-11T04:51:21.145Z,15.67
2022-08-11T04:53:59.408Z,15.63
2022-08-11T04:56:27.216Z,15.60
2022-08-11T04:59:08.530Z,15.59
2022-08-11T05:01:43.739Z,15.59
2022-08-11T05:04:28.522Z,15.54
2022-08-11T05:07:04.078Z,15.52
2022-08-11T05:09:32.754Z,15.50
2022-08-11T05:12:01.509Z,15.54
2022-08-11T05:14:46.932Z,15.57
2022-08-11T05:17:13.259Z,15.57
2022-08-11T05:19:36.191Z,15.59
2022-08-11T05:22:01.157Z,15.57
2022-08-11T05:24:26.963Z,15.57
2022-08-11T05:26:54.369Z,15.56
2022-08-11T05:29:23.523Z,15.54
2022-08-11T05:31:51.418Z,15.59
2022-08-11T05:34:18.115Z,15.63
2022-08-11T05:36:30.287Z,15.69
2022-08-11T05:38:55.009Z,15.74
2022-08-11T05:41:17.203Z,15.80
2022-08-11T05:43:38.850Z,15.85
2022-08-11T05:46:23.633Z,15.88
2022-08-11T05:48:51.004Z,15.92
2022-08-11T05:51:16.497Z,15.94
2022-08-11T05:53:45.933Z,16.02
2022-08-11T05:56:09.511Z,16.08
2022-08-11T05:58:15.068Z,16.14
2022-08-11T06:00:20.217Z,16.18
2022-08-11T06:02:25.600Z,16.26
2022-08-11T06:04:31.042Z,16.33
2022-08-11T06:06:35.354Z,16.41
2022-08-11T06:08:39.101Z,16.50
2022-08-11T06:10:44.748Z,16.60
2022-08-11T06:12:54.234Z,16.71
2022-08-11T06:15:02.257Z,16.82
2022-08-11T06:17:07.322Z,16.92
2022-08-11T06:19:13.403Z,17.04
2022-08-11T06:21:19.235Z,17.30
2022-08-11T06:23:25.408Z,18.09
2022-08-11T06:25:35.372Z,19.43
2022-08-11T06:27:40.721Z,20.79
2022-08-11T06:29:55.330Z,22.15
2022-08-11T06:32:01.418Z,23.25
2022-08-11T06:34:27.114Z,24.25
2022-08-11T06:36:37.081Z,25.22
2022-08-11T06:38:58.388Z,26.00
2022-08-11T06:41:26.273Z,26.56
2022-08-11T06:43:38.914Z,26.98
2022-08-11T06:45:50.596Z,27.45
2022-08-11T06:47:55.447Z,28.06
2022-08-11T06:50:19.756Z,28.57
2022-08-11T06:52:44.020Z,28.81
2022-08-11T06:55:04.436Z,29.01
2022-08-11T06:57:30.744Z,29.25
2022-08-11T06:59:53.409Z,29.34
2022-08-11T07:02:06.704Z,29.31
2022-08-11T07:04:12.621Z,29.42
2022-08-11T07:06:41.679Z,29.59
2022-08-11T07:09:54.619Z,29.99
2022-08-11T07:12:36.701Z,30.30
2022-08-11T07:15:05.724Z,30.26
2022-08-11T07:17:12.837Z,30.31
2022-08-11T07:19:38.890Z,30.39
2022-08-11T07:22:13.792Z,30.59
2022-08-11T07:24:59.298Z,30.66
2022-08-11T07:27:19.290Z,30.69
2022-08-11T07:29:24.094Z,30.83
2022-08-11T07:31:36.153Z,30.67
2022-08-11T07:34:06.463Z,30.25
2022-08-11T07:36:13.529Z,30.12
2022-08-11T07:38:25.288Z,30.36
2022-08-11T07:40:30.879Z,30.50
2022-08-11T07:42:38.893Z,30.67
2022-08-11T07:44:58.206Z,30.84
2022-08-11T07:47:19.839Z,30.84
2022-08-11T07:49:40.893Z,30.80
2022-08-11T07:52:03.316Z,30.81
2022-08-11T07:54:16.932Z,30.82
2022-08-11T07:56:21.922Z,30.87
2022-08-11T07:59:07.460Z,30.97
2022-08-11T08:01:30.706Z,30.82
2022-08-11T08:03:54.514Z,30.68
2022-08-11T08:06:28.671Z,30.65
2022-08-11T08:09:00.781Z,30.68
2022-08-11T08:11:26.105Z,30.61
2022-08-11T08:13:51.162Z,30.42
2022-08-11T08:16:13.431Z,30.17
2022-08-11T08:18:26.292Z,29.45
2022-08-11T08:20:34.245Z,28.02
2022-08-11T08:22:40.580Z,27.30
2022-08-11T08:24:46.453Z,26.78
2022-08-11T08:27:01.851Z,26.26
2022-08-11T08:29:26.206Z,25.85
2022-08-11T08:31:29.977Z,25.40
2022-08-11T08:33:34.377Z,25.15
2022-08-11T08:35:54.429Z,24.77
2022-08-11T08:38:00.963Z,24.42
2022-08-11T08:40:08.083Z,24.14
2022-08-11T08:42:17.920Z,23.99
2022-08-11T08:44:41.359Z,23.72
2022-08-11T08:46:50.336Z,23.45
2022-08-11T08:48:55.492Z,23.23
2022-08-11T08:51:22.661Z,23.18
2022-08-11T08:53:33.092Z,23.12
2022-08-11T08:55:37.051Z,23.06
2022-08-11T08:57:43.914Z,22.92
2022-08-11T08:59:51.544Z,22.92
2022-08-11T09:01:59.973Z,22.95
2022-08-11T09:04:11.797Z,23.00
2022-08-11T09:06:18.131Z,22.90
2022-08-11T09:08:23.449Z,22.83
2022-08-11T09:10:30.502Z,22.93
2022-08-11T09:12:36.413Z,23.06
2022-08-11T09:15:03.849Z,23.09
2022-08-11T09:17:07.729Z,23.18
2022-08-11T09:19:11.855Z,23.18
2022-08-11T09:21:39.321Z,23.26
2022-08-11T09:24:07.754Z,23.36
2022-08-11T09:26:31.947Z,23.48
2022-08-11T09:28:36.982Z,23.41
2022-08-11T09:30:44.798Z,23.42
2022-08-11T09:32:49.445Z,23.45
2022-08-11T09:34:54.439Z,23.59
2022-08-11T09:37:28.514Z,23.59
2022-08-11T09:40:00.128Z,23.71
2022-08-11T09:42:05.235Z,23.74
2022-08-11T09:44:28.193Z,23.82
2022-08-11T09:46:34.667Z,23.96
2022-08-11T09:48:42.762Z,24.08
2022-08-11T09:50:49.742Z,24.07
2022-08-11T09:53:34.708Z,24.16
2022-08-11T09:55:17.937Z,24.36
2022-08-11T09:57:39.820Z,24.40
2022-08-11T09:59:43.897Z,24.43
2022-08-11T10:01:52.306Z,24.46
2022-08-11T10:04:01.978Z,24.48
2022-08-11T10:06:34.039Z,24.51
2022-08-11T10:08:41.424Z,24.43
2022-08-11T10:10:47.425Z,24.39
2022-08-11T10:12:57.776Z,24.33
2022-08-11T10:15:23.450Z,24.39
2022-08-11T10:17:32.251Z,24.55
2022-08-11T10:19:38.022Z,24.53
2022-08-11T10:21:44.524Z,24.38
2022-08-11T10:24:06.108Z,24.37
2022-08-11T10:26:28.027Z,24.54
2022-08-11T10:29:02.189Z,24.52
2022-08-11T10:31:20.235Z,24.62
2022-08-11T10:33:52.097Z,24.63
2022-08-11T10:36:03.471Z,24.73
2022-08-11T10:38:20.478Z,24.83
2022-08-11T10:40:26.154Z,24.91
2022-08-11T10:42:57.948Z,25.07
2022-08-11T10:45:03.153Z,25.23
2022-08-11T10:47:26.195Z,25.20
2022-08-11T10:49:32.848Z,25.14
2022-08-11T10:51:58.920Z,25.15
2022-08-11T10:54:20.383Z,25.26
2022-08-11T10:56:42.147Z,25.29
2022-08-11T10:58:48.726Z,25.34
2022-08-11T11:00:57.065Z,25.39
2022-08-11T11:03:22.209Z,25.38
2022-08-11T11:05:32.070Z,25.18
2022-08-11T11:07:44.026Z,25.12
2022-08-11T11:09:50.949Z,25.15
2022-08-11T11:12:15.102Z,25.10
2022-08-11T11:14:46.215Z,24.99
2022-08-11T11:17:10.982Z,24.91
2022-08-11T11:19:20.979Z,24.98
2022-08-11T11:21:27.809Z,25.03
2022-08-11T11:23:47.555Z,25.04
2022-08-11T11:26:15.078Z,25.18
2022-08-11T11:28:36.135Z,25.21
2022-08-11T11:30:49.908Z,25.20
2022-08-11T11:33:04.437Z,25.15
2022-08-11T11:35:29.603Z,25.07
2022-08-11T11:37:36.014Z,25.10
2022-08-11T11:39:40.080Z,25.11
2022-08-11T11:41:44.350Z,25.13
2022-08-11T11:43:48.613Z,25.17
2022-08-11T11:45:53.174Z,25.19
2022-08-11T11:47:59.614Z,25.28
2022-08-11T11:50:04.433Z,25.36
2022-08-11T11:52:10.500Z,25.39
2022-08-11T11:54:16.452Z,25.23
2022-08-11T11:56:21.335Z,25.23
2022-08-11T11:58:43.293Z,25.17
2022-08-11T12:01:05.348Z,25.12
2022-08-11T12:03:11.795Z,25.16
2022-08-11T12:05:16.265Z,25.11
2022-08-11T12:07:37.894Z,25.11
2022-08-11T12:09:43.832Z,25.11
2022-08-11T12:12:05.188Z,25.12
2022-08-11T12:14:11.063Z,25.07
2022-08-11T12:16:33.990Z,25.12
2022-08-11T12:18:41.270Z,25.09
2022-08-11T12:20:46.621Z,25.03
2022-08-11T12:23:08.066Z,24.94
2022-08-11T12:25:31.080Z,24.90
2022-08-11T12:27:36.470Z,24.87
2022-08-11T12:29:45.487Z,24.93
2022-08-11T12:31:50.629Z,24.94
2022-08-11T12:33:56.258Z,25.03
2022-08-11T12:36:01.803Z,25.11
2022-08-11T12:38:09.927Z,25.02
2022-08-11T12:41:11.996Z,25.03
2022-08-11T12:43:38.935Z,25.00
2022-08-11T12:45:44.572Z,24.96
2022-08-11T12:49:00.283Z,24.92
2022-08-11T12:50:49.462Z,24.89
2022-08-11T12:52:57.228Z,24.87
2022-08-11T12:55:03.985Z,24.81
2022-08-11T12:57:37.438Z,24.76
2022-08-11T13:00:00.232Z,24.69
2022-08-11T13:02:22.673Z,24.66
2022-08-11T13:04:46.381Z,24.64
2022-08-11T13:06:54.382Z,24.62
2022-08-11T13:09:01.449Z,24.58
2022-08-11T13:11:24.082Z,24.47
2022-08-11T13:13:54.215Z,24.45
2022-08-11T13:15:53.811Z,24.38
2022-08-11T13:17:57.881Z,24.32
2022-08-11T13:20:04.292Z,24.29
2022-08-11T13:22:08.420Z,24.17
2022-08-11T13:24:12.281Z,24.13
2022-08-11T13:26:16.603Z,24.13
2022-08-11T13:28:21.523Z,24.15
2022-08-11T13:30:47.413Z,24.19
2022-08-11T13:32:53.465Z,24.28
2022-08-11T13:34:57.404Z,24.34
2022-08-11T13:37:04.594Z,24.30
2022-08-11T13:39:09.684Z,24.23
2022-08-11T13:41:42.405Z,24.24
2022-08-11T13:43:46.556Z,24.26
2022-08-11T13:45:53.218Z,24.29
2022-08-11T13:47:58.982Z,24.37
2022-08-11T13:50:03.453Z,24.38
2022-08-11T13:52:08.801Z,24.32
2022-08-11T13:54:19.037Z,24.22
2022-08-11T13:56:24.795Z,24.14
2022-08-11T13:58:39.874Z,24.13
2022-08-11T14:00:52.387Z,24.17
2022-08-11T14:02:59.339Z,24.17
2022-08-11T14:05:07.683Z,24.19
2022-08-11T14:07:15.911Z,24.23
2022-08-11T14:09:25.782Z,24.25
2022-08-11T14:12:21.920Z,24.19
2022-08-11T14:14:17.833Z,24.15
2022-08-11T14:16:26.381Z,24.22
2022-08-11T14:18:33.560Z,24.24
2022-08-11T14:20:57.950Z,24.25
2022-08-11T14:23:02.352Z,24.27
2022-08-11T14:25:07.462Z,24.31
2022-08-11T14:28:15.467Z,24.40
2022-08-11T14:29:45.158Z,24.39
2022-08-11T14:31:54.861Z,24.45
2022-08-11T14:34:04.480Z,24.45
2022-08-11T14:36:12.478Z,24.52
2022-08-11T14:38:17.725Z,24.56
2022-08-11T14:40:35.561Z,24.57
2022-08-11T14:42:57.040Z,24.61
2022-08-11T14:45:18.374Z,24.64
2022-08-11T14:47:25.193Z,24.67
2022-08-11T14:49:31.908Z,24.73
2022-08-11T14:51:36.128Z,24.80
2022-08-11T14:53:40.043Z,24.83
2022-08-11T14:56:20.629Z,24.79
2022-08-11T14:58:28.439Z,24.77
2022-08-11T15:00:34.510Z,24.78
2022-08-11T15:02:57.891Z,24.78
2022-08-11T15:05:03.184Z,24.80
2022-08-11T15:07:16.665Z,24.87
2022-08-11T15:09:20.934Z,24.94
2022-08-11T15:11:43.925Z,25.00
2022-08-11T15:13:48.122Z,25.06
2022-08-11T15:16:09.619Z,25.09
2022-08-11T15:18:16.061Z,25.14
2022-08-11T15:20:39.999Z,25.16
2022-08-11T15:23:01.359Z,25.15
2022-08-11T15:25:05.164Z,25.16
2022-08-11T15:27:31.368Z,25.14
2022-08-11T15:29:51.364Z,25.16
2022-08-11T15:32:13.500Z,25.14
2022-08-11T15:34:38.605Z,25.18
2022-08-11T15:37:04.894Z,25.24
2022-08-11T15:39:19.453Z,25.23
2022-08-11T15:41:54.345Z,25.25
2022-08-11T15:44:38.722Z,25.22
2022-08-11T15:46:53.784Z,25.19
2022-08-11T15:49:03.789Z,25.17
2022-08-11T15:51:11.610Z,25.13
2022-08-11T15:53:25.251Z,25.11
2022-08-11T15:55:32.702Z,25.08
2022-08-11T15:57:55.174Z,24.99
2022-08-11T16:00:18.521Z,24.92
2022-08-11T16:02:46.419Z,24.93
2022-08-11T16:04:51.251Z,24.81
2022-08-11T16:06:59.017Z,24.78
2022-08-11T16:09:06.670Z,24.74
2022-08-11T16:11:14.984Z,24.70
2022-08-11T16:13:37.560Z,24.63
2022-08-11T16:16:03.796Z,24.60
2022-08-11T16:18:09.233Z,24.56
2022-08-11T16:20:15.928Z,24.55
2022-08-11T16:22:32.822Z,24.55
2022-08-11T16:27:02.757Z,24.58
2022-08-11T16:27:13.159Z,24.56
2022-08-11T16:29:19.448Z,24.57
2022-08-11T16:31:24.144Z,24.57
2022-08-11T16:33:49.465Z,24.58
2022-08-11T16:36:12.426Z,24.59
2022-08-11T16:38:34.198Z,24.63
2022-08-11T16:40:40.614Z,24.66
2022-08-11T16:43:10.784Z,24.71
2022-08-11T16:45:32.949Z,24.73
2022-08-11T16:48:02.122Z,24.72
2022-08-11T16:50:01.386Z,24.71
2022-08-11T16:52:06.297Z,24.71
2022-08-11T16:54:11.552Z,24.70
2022-08-11T16:56:20.621Z,24.70
2022-08-11T16:58:42.696Z,24.74
2022-08-11T17:00:47.874Z,24.72
2022-08-11T17:03:10.771Z,24.71
2022-08-11T17:05:38.497Z,24.71
2022-08-11T17:08:02.477Z,24.66
2022-08-11T17:10:39.002Z,24.59
2022-08-11T17:13:12.694Z,24.52
2022-08-11T17:15:36.475Z,24.46
2022-08-11T17:17:41.421Z,24.46
2022-08-11T17:20:42.643Z,24.46
2022-08-11T17:22:31.948Z,24.46
2022-08-11T17:24:39.432Z,24.49
2022-08-11T17:26:57.229Z,24.47
2022-08-11T17:29:03.827Z,24.42
2022-08-11T17:31:28.099Z,24.38
2022-08-11T17:33:49.810Z,24.32
2022-08-11T17:35:54.129Z,24.28
2022-08-11T17:38:00.266Z,24.27
2022-08-11T17:40:08.506Z,24.27
2022-08-11T17:42:29.429Z,24.27
2022-08-11T17:44:53.568Z,24.27
2022-08-11T17:47:14.572Z,24.24
2022-08-11T17:49:20.520Z,24.19
2022-08-11T17:51:39.829Z,24.17
2022-08-11T17:54:23.765Z,24.12
2022-08-11T17:56:44.455Z,24.10
2022-08-11T17:59:09.566Z,24.06
2022-08-11T18:01:16.766Z,24.05
2022-08-11T18:03:30.234Z,24.09
2022-08-11T18:05:35.926Z,24.08
2022-08-11T18:07:58.670Z,24.07
2022-08-11T18:10:21.534Z,24.03
2022-08-11T18:12:42.981Z,23.99
2022-08-11T18:15:06.679Z,23.99
2022-08-11T18:17:28.734Z,23.93
2022-08-11T18:19:49.915Z,23.92
2022-08-11T18:22:16.357Z,23.94
2022-08-11T18:24:41.223Z,23.90
2022-08-11T18:27:04.305Z,23.80
2022-08-11T18:29:27.511Z,23.77
2022-08-11T18:31:52.900Z,23.75
2022-08-11T18:34:20.449Z,23.70
2022-08-11T18:36:47.317Z,23.65
2022-08-11T18:39:10.429Z,23.58
2022-08-11T18:41:33.729Z,23.51
2022-08-11T18:43:56.146Z,23.48
2022-08-11T18:46:21.399Z,23.46
2022-08-11T18:51:30.841Z,23.47
2022-08-11T18:54:00.223Z,23.48
2022-08-11T18:56:21.621Z,23.49
2022-08-11T18:58:47.128Z,23.55
2022-08-11T19:01:10.263Z,23.67
2022-08-11T19:03:43.174Z,23.78
2022-08-11T19:06:38.123Z,23.81
2022-08-11T19:08:52.739Z,23.75
2022-08-11T19:11:16.211Z,23.67
2022-08-11T19:13:43.630Z,23.58
2022-08-11T19:16:07.536Z,23.51
2022-08-11T19:18:33.994Z,23.47
2022-08-11T19:20:55.995Z,23.42
2022-08-11T19:23:18.554Z,23.39
2022-08-11T19:25:41.591Z,23.35
2022-08-11T19:28:05.874Z,23.30
2022-08-11T19:30:26.998Z,23.25
2022-08-11T19:32:50.297Z,23.20
2022-08-11T19:35:11.663Z,23.13
2022-08-11T19:37:33.158Z,23.06
2022-08-11T19:39:55.326Z,22.97
2022-08-11T19:42:19.045Z,22.87
2022-08-11T19:44:40.817Z,22.76
2022-08-11T19:47:02.636Z,22.70
2022-08-11T19:49:29.554Z,22.64
2022-08-11T19:51:54.187Z,22.60
2022-08-11T19:54:17.022Z,22.53
2022-08-11T19:56:39.983Z,22.45
2022-08-11T19:59:03.261Z,22.38
2022-08-11T20:01:25.194Z,22.29
2022-08-11T20:03:46.434Z,22.17
2022-08-11T20:06:08.432Z,22.06
2022-08-11T20:08:29.900Z,21.97
2022-08-11T20:10:53.300Z,21.88
2022-08-11T20:13:20.583Z,21.83
2022-08-11T20:15:46.010Z,21.79
2022-08-11T20:18:07.707Z,21.76
2022-08-11T20:20:31.845Z,21.70
2022-08-11T20:22:53.914Z,21.62
2022-08-11T20:25:15.568Z,21.54
2022-08-11T20:27:37.671Z,21.46
2022-08-11T20:30:00.488Z,21.41
2022-08-11T20:32:24.573Z,21.34
2022-08-11T20:34:46.065Z,21.29
2022-08-11T20:37:09.204Z,21.22
2022-08-11T20:39:32.246Z,21.15
2022-08-11T20:41:59.273Z,21.11
2022-08-11T20:44:21.474Z,21.05
2022-08-11T20:46:44.195Z,20.99
2022-08-11T20:49:08.968Z,20.93
2022-08-11T20:51:33.958Z,20.84
2022-08-11T20:54:05.695Z,20.79
2022-08-11T20:56:28.541Z,20.74
2022-08-11T21:01:38.714Z,20.66
2022-08-11T21:04:00.799Z,20.60
2022-08-11T21:06:26.331Z,20.57
2022-08-11T21:08:56.883Z,20.56
2022-08-11T21:11:28.035Z,20.52
2022-08-11T21:13:53.183Z,20.50
2022-08-11T21:16:25.337Z,20.48
2022-08-11T21:18:50.239Z,20.45
2022-08-11T21:21:16.433Z,20.42
2022-08-11T21:23:42.166Z,20.38
2022-08-11T21:26:06.791Z,20.36
2022-08-11T21:28:29.282Z,20.32
2022-08-11T21:30:54.009Z,20.26
2022-08-11T21:33:21.179Z,20.18
2022-08-11T21:35:45.236Z,20.12
2022-08-11T21:38:09.315Z,20.07
2022-08-11T21:40:35.089Z,19.91
2022-08-11T21:43:00.341Z,19.77
2022-08-11T21:45:22.319Z,19.74
2022-08-11T21:47:45.201Z,19.72
2022-08-11T21:50:07.057Z,19.66
2022-08-11T21:52:28.833Z,19.66
2022-08-11T21:54:50.659Z,19.70
2022-08-11T21:57:14.575Z,19.71
2022-08-11T21:59:40.802Z,19.71
2022-08-11T22:02:03.655Z,19.70
2022-08-11T22:04:26.345Z,19.65
2022-08-11T22:06:49.146Z,19.60
2022-08-11T22:09:10.070Z,19.56
2022-08-11T22:11:32.493Z,19.53
2022-08-11T22:14:06.345Z,19.52
2022-08-11T22:16:29.688Z,19.48
2022-08-11T22:18:53.967Z,19.45
2022-08-11T22:21:16.472Z,19.37
2022-08-11T22:23:59.749Z,19.30
2022-08-11T22:26:22.627Z,19.23
2022-08-11T22:28:44.182Z,19.17
2022-08-11T22:31:06.740Z,19.17
2022-08-11T22:33:28.992Z,19.19
2022-08-11T22:35:53.121Z,19.18
2022-08-11T22:38:16.156Z,19.15
2022-08-11T22:40:36.905Z,19.09
2022-08-11T22:42:57.712Z,19.00
2022-08-11T22:45:19.439Z,18.93
2022-08-11T22:47:45.207Z,18.79
2022-08-11T22:50:10.056Z,18.69
2022-08-11T22:52:33.295Z,18.63
2022-08-11T22:54:54.617Z,18.65
2022-08-11T22:57:16.698Z,18.67
2022-08-11T22:59:38.773Z,18.58
2022-08-11T23:02:00.141Z,18.59
2022-08-11T23:04:24.587Z,18.57
2022-08-11T23:06:46.074Z,18.53
2022-08-11T23:09:07.603Z,18.52
2022-08-11T23:11:28.785Z,18.49
2022-08-11T23:14:10.528Z,18.49
2022-08-11T23:16:31.854Z,18.49
2022-08-11T23:18:53.314Z,18.43
2022-08-11T23:21:16.662Z,18.43
2022-08-11T23:23:38.126Z,18.45
2022-08-11T23:26:00.898Z,18.48
2022-08-11T23:28:23.948Z,18.50
2022-08-11T23:30:46.131Z,18.50
2022-08-11T23:33:10.073Z,18.52
2022-08-11T23:35:39.970Z,18.55
2022-08-11T23:38:03.232Z,18.58
2022-08-11T23:40:24.832Z,18.57
2022-08-11T23:42:46.361Z,18.52
2022-08-11T23:45:09.684Z,18.52
2022-08-11T23:47:30.793Z,18.47
2022-08-11T23:49:52.760Z,18.43
2022-08-11T23:52:15.478Z,18.40
2022-08-11T23:54:37.756Z,18.35
2022-08-11T23:56:58.861Z,18.31
2022-08-11T23:59:21.351Z,18.25
